sensor_id;sensor_type;location;lat;lon;timestamp;pressure;altitude;pressure_sealevel;temperature;humidity
37066;BME280;22981;43.080;25.550;2023-08-07T00:01:43;98782.08;;;21.13;71.24
37066;BME280;22981;43.080;25.550;2023-08-07T00:04:11;98782.08;;;21.13;71.15
37066;BME280;22981;43.080;25.550;2023-08-07T00:06:38;98784.59;;;21.09;71.05
37066;BME280;22981;43.080;25.550;2023-08-07T00:09:06;98790.08;;;21.07;71.09
37066;BME280;22981;43.080;25.550;2023-08-07T00:11:33;98797.77;;;21.05;71.00
37066;BME280;22981;43.080;25.550;2023-08-07T00:14:01;98799.72;;;21.01;71.01
37066;BME280;22981;43.080;25.550;2023-08-07T00:16:29;98807.16;;;20.98;70.99
37066;BME280;22981;43.080;25.550;2023-08-07T00:18:56;98808.88;;;20.94;71.09
37066;BME280;22981;43.080;25.550;2023-08-07T00:21:24;98808.70;;;20.88;71.25
37066;BME280;22981;43.080;25.550;2023-08-07T00:23:52;98815.30;;;20.85;71.24
37066;BME280;22981;43.080;25.550;2023-08-07T00:26:21;98810.42;;;20.84;71.21
37066;BME280;22981;43.080;25.550;2023-08-07T00:28:49;98805.85;;;20.82;71.12
37066;BME280;22981;43.080;25.550;2023-08-07T00:31:16;98813.45;;;20.83;70.98
37066;BME280;22981;43.080;25.550;2023-08-07T00:33:44;98808.37;;;20.79;70.85
37066;BME280;22981;43.080;25.550;2023-08-07T00:36:12;98811.40;;;20.77;70.65
37066;BME280;22981;43.080;25.550;2023-08-07T00:38:39;98812.80;;;20.74;70.38
37066;BME280;22981;43.080;25.550;2023-08-07T00:41:07;98820.95;;;20.74;70.30
37066;BME280;22981;43.080;25.550;2023-08-07T00:43:36;98817.68;;;20.75;70.23
37066;BME280;22981;43.080;25.550;2023-08-07T00:46:04;98817.44;;;20.74;70.18
37066;BME280;22981;43.080;25.550;2023-08-07T00:48:32;98821.80;;;20.72;70.11
37066;BME280;22981;43.080;25.550;2023-08-07T00:51:00;98826.19;;;20.71;69.96
37066;BME280;22981;43.080;25.550;2023-08-07T00:53:28;98825.14;;;20.69;69.90
37066;BME280;22981;43.080;25.550;2023-08-07T00:55:56;98831.95;;;20.69;69.80
37066;BME280;22981;43.080;25.550;2023-08-07T00:58:24;98826.23;;;20.68;69.67
37066;BME280;22981;43.080;25.550;2023-08-07T01:00:52;98833.59;;;20.68;69.61
37066;BME280;22981;43.080;25.550;2023-08-07T01:03:19;98835.75;;;20.68;69.51
37066;BME280;22981;43.080;25.550;2023-08-07T01:05:47;98836.86;;;20.67;69.43
37066;BME280;22981;43.080;25.550;2023-08-07T01:08:15;98846.14;;;20.66;69.31
37066;BME280;22981;43.080;25.550;2023-08-07T01:13:34;98858.97;;;20.63;69.15
37066;BME280;22981;43.080;25.550;2023-08-07T01:16:04;98859.84;;;20.61;69.19
37066;BME280;22981;43.080;25.550;2023-08-07T01:18:35;98861.23;;;20.59;69.16
37066;BME280;22981;43.080;25.550;2023-08-07T01:21:04;98855.33;;;20.54;69.23
37066;BME280;22981;43.080;25.550;2023-08-07T01:23:31;98857.00;;;20.53;69.28
37066;BME280;22981;43.080;25.550;2023-08-07T01:25:59;98858.12;;;20.52;69.23
37066;BME280;22981;43.080;25.550;2023-08-07T01:28:36;98851.05;;;20.50;69.19
37066;BME280;22981;43.080;25.550;2023-08-07T01:31:05;98856.23;;;20.47;69.11
37066;BME280;22981;43.080;25.550;2023-08-07T01:34:02;98870.14;;;20.45;69.03
37066;BME280;22981;43.080;25.550;2023-08-07T01:36:07;98871.01;;;20.43;69.04
37066;BME280;22981;43.080;25.550;2023-08-07T01:38:36;98880.31;;;20.40;69.01
37066;BME280;22981;43.080;25.550;2023-08-07T01:41:05;98875.45;;;20.37;69.06
37066;BME280;22981;43.080;25.550;2023-08-07T01:43:33;98877.12;;;20.35;69.05
37066;BME280;22981;43.080;25.550;2023-08-07T01:46:01;98881.79;;;20.32;68.94
37066;BME280;22981;43.080;25.550;2023-08-07T01:48:29;98883.39;;;20.33;68.77
37066;BME280;22981;43.080;25.550;2023-08-07T01:50:56;98884.51;;;20.32;68.65
37066;BME280;22981;43.080;25.550;2023-08-07T01:53:24;98881.02;;;20.29;68.75
37066;BME280;22981;43.080;25.550;2023-08-07T01:55:52;98880.06;;;20.22;68.89
37066;BME280;22981;43.080;25.550;2023-08-07T01:58:19;98874.66;;;20.20;68.87
37066;BME280;22981;43.080;25.550;2023-08-07T02:00:47;98881.20;;;20.19;68.66
37066;BME280;22981;43.080;25.550;2023-08-07T02:03:14;98886.66;;;20.16;68.56
37066;BME280;22981;43.080;25.550;2023-08-07T02:05:44;98888.75;;;20.06;68.93
37066;BME280;22981;43.080;25.550;2023-08-07T02:08:11;98889.73;;;19.96;69.48
37066;BME280;22981;43.080;25.550;2023-08-07T02:10:39;98885.23;;;19.86;69.95
37066;BME280;22981;43.080;25.550;2023-08-07T02:13:06;98894.19;;;19.87;69.60
37066;BME280;22981;43.080;25.550;2023-08-07T02:15:34;98894.96;;;19.90;68.99
37066;BME280;22981;43.080;25.550;2023-08-07T02:18:01;98897.34;;;19.94;68.59
37066;BME280;22981;43.080;25.550;2023-08-07T02:20:29;98896.95;;;19.84;68.69
37066;BME280;22981;43.080;25.550;2023-08-07T02:22:56;98906.06;;;19.74;69.07
37066;BME280;22981;43.080;25.550;2023-08-07T02:25:24;98912.09;;;19.69;69.31
37066;BME280;22981;43.080;25.550;2023-08-07T02:27:51;98907.55;;;19.64;69.32
37066;BME280;22981;43.080;25.550;2023-08-07T02:30:19;98905.18;;;19.58;69.28
37066;BME280;22981;43.080;25.550;2023-08-07T02:32:46;98904.72;;;19.50;69.48
37066;BME280;22981;43.080;25.550;2023-08-07T02:35:14;98897.69;;;19.49;69.53
37066;BME280;22981;43.080;25.550;2023-08-07T02:37:42;98895.47;;;19.51;69.42
37066;BME280;22981;43.080;25.550;2023-08-07T02:40:10;98905.18;;;19.58;69.11
37066;BME280;22981;43.080;25.550;2023-08-07T02:42:39;98910.02;;;19.63;68.54
37066;BME280;22981;43.080;25.550;2023-08-07T02:45:07;98915.67;;;19.67;68.16
37066;BME280;22981;43.080;25.550;2023-08-07T02:47:35;98925.67;;;19.69;67.92
37066;BME280;22981;43.080;25.550;2023-08-07T02:50:03;98930.03;;;19.70;67.85
37066;BME280;22981;43.080;25.550;2023-08-07T02:52:30;98925.13;;;19.69;67.84
37066;BME280;22981;43.080;25.550;2023-08-07T02:54:58;98922.96;;;19.69;67.83
37066;BME280;22981;43.080;25.550;2023-08-07T02:57:25;98925.42;;;19.68;67.87
37066;BME280;22981;43.080;25.550;2023-08-07T02:59:53;98927.13;;;19.61;68.07
37066;BME280;22981;43.080;25.550;2023-08-07T03:02:21;98931.78;;;19.58;68.28
37066;BME280;22981;43.080;25.550;2023-08-07T03:04:48;98935.30;;;19.59;68.33
37066;BME280;22981;43.080;25.550;2023-08-07T03:07:16;98927.97;;;19.62;68.09
37066;BME280;22981;43.080;25.550;2023-08-07T03:09:45;98928.48;;;19.61;67.85
37066;BME280;22981;43.080;25.550;2023-08-07T03:12:13;98933.11;;;19.61;67.79
37066;BME280;22981;43.080;25.550;2023-08-07T03:17:06;98940.48;;;19.58;67.60
37066;BME280;22981;43.080;25.550;2023-08-07T03:19:34;98930.42;;;19.58;67.28
37066;BME280;22981;43.080;25.550;2023-08-07T03:22:02;98942.64;;;19.58;67.12
37066;BME280;22981;43.080;25.550;2023-08-07T03:24:29;98937.20;;;19.58;67.02
37066;BME280;22981;43.080;25.550;2023-08-07T03:26:57;98941.78;;;19.60;66.96
37066;BME280;22981;43.080;25.550;2023-08-07T03:29:24;98939.92;;;19.58;66.95
37066;BME280;22981;43.080;25.550;2023-08-07T03:31:52;98944.27;;;19.57;66.97
37066;BME280;22981;43.080;25.550;2023-08-07T03:34:19;98947.53;;;19.56;67.15
37066;BME280;22981;43.080;25.550;2023-08-07T03:36:47;98951.61;;;19.56;67.25
37066;BME280;22981;43.080;25.550;2023-08-07T03:39:15;98957.27;;;19.60;67.13
37066;BME280;22981;43.080;25.550;2023-08-07T03:41:42;98961.39;;;19.57;67.20
37066;BME280;22981;43.080;25.550;2023-08-07T03:44:10;98963.83;;;19.56;67.14
37066;BME280;22981;43.080;25.550;2023-08-07T03:46:38;98958.70;;;19.55;67.08
37066;BME280;22981;43.080;25.550;2023-08-07T03:49:06;98968.75;;;19.54;67.09
37066;BME280;22981;43.080;25.550;2023-08-07T03:51:33;98970.06;;;19.57;67.02
37066;BME280;22981;43.080;25.550;2023-08-07T03:54:01;98979.84;;;19.58;67.05
37066;BME280;22981;43.080;25.550;2023-08-07T03:56:28;98977.95;;;19.56;67.07
37066;BME280;22981;43.080;25.550;2023-08-07T03:58:57;98988.02;;;19.55;67.10
37066;BME280;22981;43.080;25.550;2023-08-07T04:01:25;98978.51;;;19.55;67.14
37066;BME280;22981;43.080;25.550;2023-08-07T04:03:53;98984.47;;;19.57;67.20
37066;BME280;22981;43.080;25.550;2023-08-07T04:06:21;98975.77;;;19.58;67.22
37066;BME280;22981;43.080;25.550;2023-08-07T04:08:48;98985.28;;;19.58;67.25
37066;BME280;22981;43.080;25.550;2023-08-07T04:11:16;98988.27;;;19.56;67.18
37066;BME280;22981;43.080;25.550;2023-08-07T04:13:44;98992.87;;;19.58;67.20
37066;BME280;22981;43.080;25.550;2023-08-07T04:16:11;98979.04;;;19.57;67.05
37066;BME280;22981;43.080;25.550;2023-08-07T04:18:39;98982.56;;;19.58;67.01
37066;BME280;22981;43.080;25.550;2023-08-07T04:21:06;98983.88;;;19.60;66.77
37066;BME280;22981;43.080;25.550;2023-08-07T04:23:34;98983.62;;;19.62;66.58
37066;BME280;22981;43.080;25.550;2023-08-07T04:26:02;98977.59;;;19.65;66.40
37066;BME280;22981;43.080;25.550;2023-08-07T04:28:30;98984.11;;;19.66;66.35
37066;BME280;22981;43.080;25.550;2023-08-07T04:30:57;98981.34;;;19.69;66.27
37066;BME280;22981;43.080;25.550;2023-08-07T04:33:25;98980.77;;;19.72;66.12
37066;BME280;22981;43.080;25.550;2023-08-07T04:35:52;98980.20;;;19.75;65.95
37066;BME280;22981;43.080;25.550;2023-08-07T04:38:20;98975.50;;;19.81;65.80
37066;BME280;22981;43.080;25.550;2023-08-07T04:40:49;98983.32;;;19.85;65.60
37066;BME280;22981;43.080;25.550;2023-08-07T04:43:18;98982.47;;;19.87;65.43
37066;BME280;22981;43.080;25.550;2023-08-07T04:45:49;98982.69;;;19.90;65.29
37066;BME280;22981;43.080;25.550;2023-08-07T04:48:16;98980.20;;;19.94;65.27
37066;BME280;22981;43.080;25.550;2023-08-07T04:50:44;98980.68;;;19.98;65.21
37066;BME280;22981;43.080;25.550;2023-08-07T04:53:12;98980.66;;;20.01;65.15
37066;BME280;22981;43.080;25.550;2023-08-07T04:55:39;98976.03;;;20.01;65.03
37066;BME280;22981;43.080;25.550;2023-08-07T04:58:07;98984.12;;;20.04;65.10
37066;BME280;22981;43.080;25.550;2023-08-07T05:00:35;98987.34;;;20.09;64.91
37066;BME280;22981;43.080;25.550;2023-08-07T05:03:03;98985.36;;;20.14;64.87
37066;BME280;22981;43.080;25.550;2023-08-07T05:05:31;98987.19;;;20.19;64.67
37066;BME280;22981;43.080;25.550;2023-08-07T05:07:59;98993.66;;;20.23;64.48
37066;BME280;22981;43.080;25.550;2023-08-07T05:10:26;98993.58;;;20.28;64.33
37066;BME280;22981;43.080;25.550;2023-08-07T05:12:54;98996.73;;;20.35;63.98
37066;BME280;22981;43.080;25.550;2023-08-07T05:15:26;99003.48;;;20.38;63.61
37066;BME280;22981;43.080;25.550;2023-08-07T05:17:55;99010.58;;;20.36;63.37
37066;BME280;22981;43.080;25.550;2023-08-07T05:20:22;99016.48;;;20.41;63.17
37066;BME280;22981;43.080;25.550;2023-08-07T05:22:50;99010.47;;;20.44;62.69
37066;BME280;22981;43.080;25.550;2023-08-07T05:25:18;99005.53;;;20.48;62.40
37066;BME280;22981;43.080;25.550;2023-08-07T05:27:46;98999.98;;;20.56;62.05
37066;BME280;22981;43.080;25.550;2023-08-07T05:30:15;98999.83;;;20.64;61.85
37066;BME280;22981;43.080;25.550;2023-08-07T05:32:42;99000.83;;;20.70;61.54
37066;BME280;22981;43.080;25.550;2023-08-07T05:35:10;98995.60;;;20.74;61.28
37066;BME280;22981;43.080;25.550;2023-08-07T05:37:38;99000.14;;;20.79;61.02
37066;BME280;22981;43.080;25.550;2023-08-07T05:40:06;99009.27;;;20.85;60.69
37066;BME280;22981;43.080;25.550;2023-08-07T05:42:34;99012.73;;;20.91;60.68
37066;BME280;22981;43.080;25.550;2023-08-07T05:45:01;99016.72;;;20.96;60.59
37066;BME280;22981;43.080;25.550;2023-08-07T05:47:30;99009.81;;;21.01;60.39
37066;BME280;22981;43.080;25.550;2023-08-07T05:49:57;99018.16;;;21.07;60.01
37066;BME280;22981;43.080;25.550;2023-08-07T05:52:25;99014.79;;;21.13;59.77
37066;BME280;22981;43.080;25.550;2023-08-07T05:54:53;99016.36;;;21.16;59.32
37066;BME280;22981;43.080;25.550;2023-08-07T05:57:20;99005.69;;;21.20;59.12
37066;BME280;22981;43.080;25.550;2023-08-07T05:59:48;99005.93;;;21.21;59.10
37066;BME280;22981;43.080;25.550;2023-08-07T06:02:15;99017.77;;;21.28;59.01
37066;BME280;22981;43.080;25.550;2023-08-07T06:04:43;99017.73;;;21.30;58.73
37066;BME280;22981;43.080;25.550;2023-08-07T06:07:11;99019.09;;;21.30;58.08
37066;BME280;22981;43.080;25.550;2023-08-07T06:09:39;99020.45;;;21.30;57.79
37066;BME280;22981;43.080;25.550;2023-08-07T06:12:06;99013.64;;;21.33;57.74
37066;BME280;22981;43.080;25.550;2023-08-07T06:14:34;99012.98;;;21.38;57.33
37066;BME280;22981;43.080;25.550;2023-08-07T06:17:02;99020.56;;;21.41;57.14
37066;BME280;22981;43.080;25.550;2023-08-07T06:19:29;99030.55;;;21.46;57.17
37066;BME280;22981;43.080;25.550;2023-08-07T06:21:57;99029.08;;;21.51;56.89
37066;BME280;22981;43.080;25.550;2023-08-07T06:24:24;99033.05;;;21.56;56.68
37066;BME280;22981;43.080;25.550;2023-08-07T06:26:52;99024.02;;;21.58;56.67
37066;BME280;22981;43.080;25.550;2023-08-07T06:29:19;99032.04;;;21.66;56.69
37066;BME280;22981;43.080;25.550;2023-08-07T06:31:47;99031.65;;;21.72;56.11
37066;BME280;22981;43.080;25.550;2023-08-07T06:34:14;99030.22;;;21.75;55.95
37066;BME280;22981;43.080;25.550;2023-08-07T06:36:42;99020.64;;;21.78;55.53
37066;BME280;22981;43.080;25.550;2023-08-07T06:39:10;99023.33;;;21.80;55.20
37066;BME280;22981;43.080;25.550;2023-08-07T06:41:38;99024.05;;;21.83;55.08
37066;BME280;22981;43.080;25.550;2023-08-07T06:44:06;99028.42;;;21.84;54.90
37066;BME280;22981;43.080;25.550;2023-08-07T06:46:33;99034.56;;;21.90;54.71
37066;BME280;22981;43.080;25.550;2023-08-07T06:49:01;99031.48;;;21.94;54.46
37066;BME280;22981;43.080;25.550;2023-08-07T06:51:28;99027.76;;;22.01;54.43
37066;BME280;22981;43.080;25.550;2023-08-07T06:53:56;99026.59;;;22.05;54.09
37066;BME280;22981;43.080;25.550;2023-08-07T06:56:24;99031.93;;;22.10;54.20
37066;BME280;22981;43.080;25.550;2023-08-07T06:58:51;99026.66;;;22.16;54.07
37066;BME280;22981;43.080;25.550;2023-08-07T07:01:19;99025.43;;;22.22;54.02
37066;BME280;22981;43.080;25.550;2023-08-07T07:03:47;99033.77;;;22.28;54.14
37066;BME280;22981;43.080;25.550;2023-08-07T07:06:16;99038.77;;;22.35;53.90
37066;BME280;22981;43.080;25.550;2023-08-07T07:08:43;99040.33;;;22.38;53.72
37066;BME280;22981;43.080;25.550;2023-08-07T07:11:11;99046.79;;;22.42;53.54
37066;BME280;22981;43.080;25.550;2023-08-07T07:13:39;99047.23;;;22.47;53.27
37066;BME280;22981;43.080;25.550;2023-08-07T07:16:07;99045.50;;;22.51;53.31
37066;BME280;22981;43.080;25.550;2023-08-07T07:18:37;99052.19;;;22.56;53.31
37066;BME280;22981;43.080;25.550;2023-08-07T07:21:04;99050.41;;;22.63;53.00
37066;BME280;22981;43.080;25.550;2023-08-07T07:23:32;99049.67;;;22.71;52.56
37066;BME280;22981;43.080;25.550;2023-08-07T07:25:59;99048.18;;;22.76;52.22
37066;BME280;22981;43.080;25.550;2023-08-07T07:28:27;99049.92;;;22.83;52.46
37066;BME280;22981;43.080;25.550;2023-08-07T07:30:55;99036.28;;;22.94;52.24
37066;BME280;22981;43.080;25.550;2023-08-07T07:33:22;99058.98;;;23.04;51.87
37066;BME280;22981;43.080;25.550;2023-08-07T07:35:50;99053.57;;;23.12;51.78
37066;BME280;22981;43.080;25.550;2023-08-07T07:38:18;99045.75;;;23.19;50.72
37066;BME280;22981;43.080;25.550;2023-08-07T07:40:45;99048.61;;;23.26;50.10
37066;BME280;22981;43.080;25.550;2023-08-07T07:43:13;99047.34;;;23.32;49.54
37066;BME280;22981;43.080;25.550;2023-08-07T07:45:40;99042.81;;;23.38;49.53
37066;BME280;22981;43.080;25.550;2023-08-07T07:48:08;99043.14;;;23.45;49.44
37066;BME280;22981;43.080;25.550;2023-08-07T07:50:35;99049.83;;;23.50;49.19
37066;BME280;22981;43.080;25.550;2023-08-07T07:53:03;99059.12;;;23.61;48.77
37066;BME280;22981;43.080;25.550;2023-08-07T07:55:30;99061.42;;;23.67;48.63
37066;BME280;22981;43.080;25.550;2023-08-07T07:58:00;99062.34;;;23.74;48.40
37066;BME280;22981;43.080;25.550;2023-08-07T08:00:27;99067.27;;;23.83;48.36
37066;BME280;22981;43.080;25.550;2023-08-07T08:02:55;99058.77;;;23.93;48.15
37066;BME280;22981;43.080;25.550;2023-08-07T08:05:22;99059.86;;;24.04;48.49
37066;BME280;22981;43.080;25.550;2023-08-07T08:07:50;99056.91;;;24.20;47.84
37066;BME280;22981;43.080;25.550;2023-08-07T08:10:18;99052.48;;;24.30;47.29
37066;BME280;22981;43.080;25.550;2023-08-07T08:12:45;99042.62;;;24.40;47.47
37066;BME280;22981;43.080;25.550;2023-08-07T08:15:14;99045.52;;;24.53;47.16
37066;BME280;22981;43.080;25.550;2023-08-07T08:17:41;99049.86;;;24.62;47.29
37066;BME280;22981;43.080;25.550;2023-08-07T08:20:09;99058.56;;;24.73;46.69
37066;BME280;22981;43.080;25.550;2023-08-07T08:22:37;99058.48;;;24.84;46.93
37066;BME280;22981;43.080;25.550;2023-08-07T08:25:05;99055.32;;;24.97;46.82
37066;BME280;22981;43.080;25.550;2023-08-07T08:27:33;99068.28;;;25.11;45.99
37066;BME280;22981;43.080;25.550;2023-08-07T08:30:01;99062.22;;;25.20;45.42
37066;BME280;22981;43.080;25.550;2023-08-07T08:32:28;99057.67;;;25.33;45.11
37066;BME280;22981;43.080;25.550;2023-08-07T08:34:56;99057.69;;;25.48;44.76
37066;BME280;22981;43.080;25.550;2023-08-07T08:37:24;99055.09;;;25.52;44.50
37066;BME280;22981;43.080;25.550;2023-08-07T08:39:51;99053.00;;;25.57;44.07
37066;BME280;22981;43.080;25.550;2023-08-07T08:42:20;99052.70;;;25.65;43.52
37066;BME280;22981;43.080;25.550;2023-08-07T08:44:52;99044.31;;;25.70;43.03
37066;BME280;22981;43.080;25.550;2023-08-07T08:47:21;99045.19;;;25.77;42.99
37066;BME280;22981;43.080;25.550;2023-08-07T08:49:52;99038.77;;;25.87;42.96
37066;BME280;22981;43.080;25.550;2023-08-07T08:52:21;99046.95;;;25.96;42.58
37066;BME280;22981;43.080;25.550;2023-08-07T08:54:51;99041.98;;;26.04;42.36
37066;BME280;22981;43.080;25.550;2023-08-07T08:57:21;99046.41;;;26.17;42.32
37066;BME280;22981;43.080;25.550;2023-08-07T08:59:50;99046.48;;;26.30;42.12
37066;BME280;22981;43.080;25.550;2023-08-07T09:02:18;99044.36;;;26.41;41.90
37066;BME280;22981;43.080;25.550;2023-08-07T09:04:46;99042.72;;;26.49;40.96
37066;BME280;22981;43.080;25.550;2023-08-07T09:07:15;99037.64;;;26.60;40.93
37066;BME280;22981;43.080;25.550;2023-08-07T09:09:44;99033.89;;;26.70;40.40
37066;BME280;22981;43.080;25.550;2023-08-07T09:12:20;99035.19;;;26.79;40.52
37066;BME280;22981;43.080;25.550;2023-08-07T09:14:49;99047.69;;;26.89;40.10
37066;BME280;22981;43.080;25.550;2023-08-07T09:17:18;99039.13;;;26.96;39.92
37066;BME280;22981;43.080;25.550;2023-08-07T09:19:46;99040.64;;;27.00;39.28
37066;BME280;22981;43.080;25.550;2023-08-07T09:22:14;99042.23;;;27.01;39.40
37066;BME280;22981;43.080;25.550;2023-08-07T09:24:41;99039.52;;;27.07;39.14
37066;BME280;22981;43.080;25.550;2023-08-07T09:27:09;99036.13;;;27.16;39.15
37066;BME280;22981;43.080;25.550;2023-08-07T09:29:39;99044.16;;;27.15;38.99
37066;BME280;22981;43.080;25.550;2023-08-07T09:32:13;99040.03;;;27.15;39.29
37066;BME280;22981;43.080;25.550;2023-08-07T09:34:42;99030.64;;;27.16;39.05
37066;BME280;22981;43.080;25.550;2023-08-07T09:37:10;99029.61;;;27.21;39.20
37066;BME280;22981;43.080;25.550;2023-08-07T09:39:37;99030.30;;;27.36;39.08
37066;BME280;22981;43.080;25.550;2023-08-07T09:42:05;99037.00;;;27.54;38.88
37066;BME280;22981;43.080;25.550;2023-08-07T09:44:37;99037.91;;;27.64;38.23
37066;BME280;22981;43.080;25.550;2023-08-07T09:47:16;99038.96;;;27.78;38.30
37066;BME280;22981;43.080;25.550;2023-08-07T09:49:45;99045.94;;;27.87;37.74
37066;BME280;22981;43.080;25.550;2023-08-07T09:52:14;99051.00;;;27.98;37.49
37066;BME280;22981;43.080;25.550;2023-08-07T09:54:42;99051.22;;;27.99;37.19
37066;BME280;22981;43.080;25.550;2023-08-07T09:57:10;99041.01;;;27.99;36.85
37066;BME280;22981;43.080;25.550;2023-08-07T09:59:37;99039.98;;;27.98;36.67
37066;BME280;22981;43.080;25.550;2023-08-07T10:02:05;99039.97;;;28.04;36.56
37066;BME280;22981;43.080;25.550;2023-08-07T10:04:33;99040.42;;;28.12;36.40
37066;BME280;22981;43.080;25.550;2023-08-07T10:07:02;99037.17;;;28.22;36.39
37066;BME280;22981;43.080;25.550;2023-08-07T10:09:29;99033.05;;;28.28;36.57
37066;BME280;22981;43.080;25.550;2023-08-07T10:11:59;99032.22;;;28.34;36.63
37066;BME280;22981;43.080;25.550;2023-08-07T10:14:27;99038.09;;;28.38;36.12
37066;BME280;22981;43.080;25.550;2023-08-07T10:16:56;99029.97;;;28.36;35.89
37066;BME280;22981;43.080;25.550;2023-08-07T10:19:24;99033.81;;;28.35;35.74
37066;BME280;22981;43.080;25.550;2023-08-07T10:21:52;99027.55;;;28.28;35.79
37066;BME280;22981;43.080;25.550;2023-08-07T10:24:21;99035.66;;;28.31;35.62
37066;BME280;22981;43.080;25.550;2023-08-07T10:26:51;99029.69;;;28.35;35.53
37066;BME280;22981;43.080;25.550;2023-08-07T10:29:20;99025.48;;;28.37;35.01
37066;BME280;22981;43.080;25.550;2023-08-07T10:31:50;99032.83;;;28.39;35.40
37066;BME280;22981;43.080;25.550;2023-08-07T10:34:19;99031.75;;;28.50;35.60
37066;BME280;22981;43.080;25.550;2023-08-07T10:36:47;99032.55;;;28.57;35.38
37066;BME280;22981;43.080;25.550;2023-08-07T10:39:16;99021.49;;;28.63;35.13
37066;BME280;22981;43.080;25.550;2023-08-07T10:41:47;99025.41;;;28.62;34.99
37066;BME280;22981;43.080;25.550;2023-08-07T10:44:22;99023.98;;;28.68;35.33
37066;BME280;22981;43.080;25.550;2023-08-07T10:46:55;99019.27;;;28.75;34.62
37066;BME280;22981;43.080;25.550;2023-08-07T10:49:40;99014.81;;;28.70;34.38
37066;BME280;22981;43.080;25.550;2023-08-07T10:52:14;99010.22;;;28.68;34.19
37066;BME280;22981;43.080;25.550;2023-08-07T10:54:46;99016.67;;;28.66;34.67
37066;BME280;22981;43.080;25.550;2023-08-07T10:57:15;99024.20;;;28.75;34.96
37066;BME280;22981;43.080;25.550;2023-08-07T11:02:31;99022.92;;;28.79;34.29
37066;BME280;22981;43.080;25.550;2023-08-07T11:05:00;99018.22;;;28.73;34.59
37066;BME280;22981;43.080;25.550;2023-08-07T11:07:30;99014.30;;;28.80;34.75
37066;BME280;22981;43.080;25.550;2023-08-07T11:09:58;99012.80;;;28.83;34.23
37066;BME280;22981;43.080;25.550;2023-08-07T11:12:27;99015.73;;;28.68;34.07
37066;BME280;22981;43.080;25.550;2023-08-07T11:14:56;99011.78;;;28.53;34.38
37066;BME280;22981;43.080;25.550;2023-08-07T11:17:27;99001.57;;;28.54;34.24
37066;BME280;22981;43.080;25.550;2023-08-07T11:19:56;99005.70;;;28.54;33.59
37066;BME280;22981;43.080;25.550;2023-08-07T11:22:24;98996.43;;;28.46;34.29
37066;BME280;22981;43.080;25.550;2023-08-07T11:24:51;98998.81;;;28.54;34.81
37066;BME280;22981;43.080;25.550;2023-08-07T11:27:23;98991.63;;;28.65;34.33
37066;BME280;22981;43.080;25.550;2023-08-07T11:29:51;98993.75;;;28.78;34.74
37066;BME280;22981;43.080;25.550;2023-08-07T11:32:20;99000.05;;;28.84;34.96
37066;BME280;22981;43.080;25.550;2023-08-07T11:34:51;99000.27;;;28.85;34.67
37066;BME280;22981;43.080;25.550;2023-08-07T11:37:18;99002.27;;;28.79;34.63
37066;BME280;22981;43.080;25.550;2023-08-07T11:39:46;98996.87;;;28.76;33.93
37066;BME280;22981;43.080;25.550;2023-08-07T11:42:14;98999.20;;;28.68;33.81
37066;BME280;22981;43.080;25.550;2023-08-07T11:44:41;98999.78;;;28.67;34.42
37066;BME280;22981;43.080;25.550;2023-08-07T11:47:10;99004.91;;;28.75;34.66
37066;BME280;22981;43.080;25.550;2023-08-07T11:49:38;98996.17;;;28.79;34.18
37066;BME280;22981;43.080;25.550;2023-08-07T11:52:06;98997.19;;;28.81;33.72
37066;BME280;22981;43.080;25.550;2023-08-07T11:54:34;98989.66;;;28.72;33.09
37066;BME280;22981;43.080;25.550;2023-08-07T11:57:01;98992.73;;;28.76;33.51
37066;BME280;22981;43.080;25.550;2023-08-07T11:59:29;98995.13;;;28.78;33.55
37066;BME280;22981;43.080;25.550;2023-08-07T12:01:57;98992.63;;;28.79;33.69
37066;BME280;22981;43.080;25.550;2023-08-07T12:04:24;98985.38;;;28.80;34.05
37066;BME280;22981;43.080;25.550;2023-08-07T12:06:53;98986.39;;;28.82;34.09
37066;BME280;22981;43.080;25.550;2023-08-07T12:09:21;98981.75;;;28.92;33.91
37066;BME280;22981;43.080;25.550;2023-08-07T12:11:49;98976.22;;;28.98;33.16
37066;BME280;22981;43.080;25.550;2023-08-07T12:14:17;98977.12;;;29.02;33.26
37066;BME280;22981;43.080;25.550;2023-08-07T12:16:48;98979.27;;;29.09;33.30
37066;BME280;22981;43.080;25.550;2023-08-07T12:19:16;98981.97;;;29.15;33.07
37066;BME280;22981;43.080;25.550;2023-08-07T12:21:45;98985.77;;;29.16;32.72
37066;BME280;22981;43.080;25.550;2023-08-07T12:24:13;98988.77;;;29.11;33.20
37066;BME280;22981;43.080;25.550;2023-08-07T12:26:41;98987.27;;;29.14;33.24
37066;BME280;22981;43.080;25.550;2023-08-07T12:29:08;98976.83;;;29.13;33.20
37066;BME280;22981;43.080;25.550;2023-08-07T12:31:36;98980.26;;;29.16;33.22
37066;BME280;22981;43.080;25.550;2023-08-07T12:34:03;98990.22;;;29.21;33.21
37066;BME280;22981;43.080;25.550;2023-08-07T12:36:31;98995.36;;;29.23;32.85
37066;BME280;22981;43.080;25.550;2023-08-07T12:38:58;98991.45;;;29.24;32.77
37066;BME280;22981;43.080;25.550;2023-08-07T12:41:27;98988.47;;;29.23;32.52
37066;BME280;22981;43.080;25.550;2023-08-07T12:43:54;98998.12;;;29.23;32.54
37066;BME280;22981;43.080;25.550;2023-08-07T12:46:22;98992.23;;;29.24;32.40
37066;BME280;22981;43.080;25.550;2023-08-07T12:48:50;98985.59;;;29.25;32.14
37066;BME280;22981;43.080;25.550;2023-08-07T12:51:17;98987.98;;;29.27;32.31
37066;BME280;22981;43.080;25.550;2023-08-07T12:53:45;98979.63;;;29.23;32.27
37066;BME280;22981;43.080;25.550;2023-08-07T12:56:13;98986.81;;;29.12;32.59
37066;BME280;22981;43.080;25.550;2023-08-07T12:58:41;98982.31;;;28.98;32.14
37066;BME280;22981;43.080;25.550;2023-08-07T13:01:09;98987.03;;;28.97;32.38
37066;BME280;22981;43.080;25.550;2023-08-07T13:03:39;98985.75;;;29.01;32.53